createdAt,value
2018-12-20T00:00:07.640Z,7.67
2018-12-20T00:02:35.197Z,7.00
2018-12-20T00:05:02.832Z,7.33
2018-12-20T00:07:30.484Z,7.20
2018-12-20T00:09:58.110Z,7.07
2018-12-20T00:12:25.965Z,6.63
2018-12-20T00:14:53.738Z,8.30
2018-12-20T00:17:27.474Z,7.10
2018-12-20T00:19:55.053Z,8.90
2018-12-20T00:22:22.624Z,8.50
2018-12-20T00:24:50.366Z,6.97
2018-12-20T00:27:17.989Z,7.47
2018-12-20T00:29:45.554Z,6.90
2018-12-20T00:32:13.221Z,11.30
2018-12-20T00:34:40.938Z,11.43
2018-12-20T00:37:08.580Z,12.70
2018-12-20T00:39:36.143Z,12.27
2018-12-20T00:42:03.716Z,10.60
2018-12-20T00:44:37.446Z,10.20
2018-12-20T00:47:00.860Z,9.50
2018-12-20T00:49:28.427Z,11.60
2018-12-20T00:51:56.001Z,10.80
2018-12-20T00:54:23.583Z,10.40
2018-12-20T00:56:51.388Z,8.40
2018-12-20T00:59:19.041Z,6.53
2018-12-20T01:01:46.625Z,7.50
2018-12-20T01:04:14.174Z,5.20
2018-12-20T01:06:41.816Z,5.87
2018-12-20T01:09:09.439Z,4.63
2018-12-20T01:11:37.149Z,5.20
2018-12-20T01:14:05.337Z,4.83
2018-12-20T01:16:32.927Z,5.73
2018-12-20T01:19:00.577Z,5.10
2018-12-20T01:21:28.173Z,7.87
2018-12-20T01:23:55.790Z,5.63
2018-12-20T01:26:23.426Z,4.67
2018-12-20T01:28:51.062Z,4.80
2018-12-20T01:31:18.819Z,4.83
2018-12-20T01:33:46.394Z,5.10
2018-12-20T01:36:14.100Z,4.63
2018-12-20T01:38:41.645Z,5.37
2018-12-20T01:41:09.236Z,4.77
2018-12-20T01:43:36.772Z,5.93
2018-12-20T01:46:04.422Z,6.07
2018-12-20T01:48:32.135Z,5.90
2018-12-20T01:50:59.822Z,4.83
2018-12-20T01:53:27.504Z,5.13
2018-12-20T01:55:55.247Z,5.40
2018-12-20T01:58:23.157Z,5.10
2018-12-20T02:00:50.888Z,6.37
2018-12-20T02:03:18.543Z,5.50
2018-12-20T02:05:46.176Z,5.20
2018-12-20T02:08:13.922Z,4.97
2018-12-20T02:10:41.578Z,5.10
2018-12-20T02:13:09.211Z,5.40
2018-12-20T02:15:36.832Z,5.30
2018-12-20T02:18:04.399Z,4.40
2018-12-20T02:20:31.980Z,4.90
2018-12-20T02:22:59.839Z,5.17
2018-12-20T02:25:27.683Z,4.80
2018-12-20T02:27:55.344Z,4.10
2018-12-20T02:30:23.808Z,4.40
2018-12-20T02:32:51.525Z,4.70
2018-12-20T02:35:19.248Z,4.33
2018-12-20T02:37:46.971Z,4.70
2018-12-20T02:40:14.806Z,4.50
2018-12-20T02:42:42.479Z,4.63
2018-12-20T02:45:10.904Z,5.50
2018-12-20T02:47:38.958Z,4.80
2018-12-20T02:50:06.554Z,4.67
2018-12-20T02:52:34.129Z,5.60
2018-12-20T02:55:01.846Z,4.90
2018-12-20T02:57:29.534Z,4.73
2018-12-20T02:59:57.296Z,4.40
2018-12-20T03:02:25.046Z,4.83
2018-12-20T03:04:52.933Z,5.43
2018-12-20T03:07:20.594Z,5.30
2018-12-20T03:09:48.187Z,5.20
2018-12-20T03:12:16.140Z,5.30
2018-12-20T03:14:43.804Z,4.73
2018-12-20T03:17:11.478Z,5.27
2018-12-20T03:19:39.190Z,4.63
2018-12-20T03:22:06.856Z,5.43
2018-12-20T03:24:34.742Z,5.70
2018-12-20T03:27:02.509Z,5.03
2018-12-20T03:29:30.182Z,4.50
2018-12-20T03:31:57.734Z,5.90
2018-12-20T03:34:25.305Z,5.00
2018-12-20T03:36:52.880Z,5.00
2018-12-20T03:39:20.552Z,4.60
2018-12-20T03:41:48.266Z,4.60
2018-12-20T03:44:15.896Z,4.60
2018-12-20T03:46:43.452Z,5.47
2018-12-20T03:49:11.083Z,4.77
2018-12-20T03:51:38.839Z,5.83
2018-12-20T03:54:06.563Z,4.87
2018-12-20T03:56:34.152Z,5.60
2018-12-20T03:59:01.796Z,5.90
2018-12-20T04:01:29.405Z,4.40
2018-12-20T04:03:57.052Z,4.50
2018-12-20T04:06:24.690Z,3.47
2018-12-20T04:08:52.380Z,3.63
2018-12-20T04:11:20.337Z,3.47
2018-12-20T04:13:48.298Z,4.20
2018-12-20T04:16:16.099Z,4.40
2018-12-20T04:18:43.930Z,5.03
2018-12-20T04:21:11.767Z,5.33
2018-12-20T04:23:39.503Z,5.93
2018-12-20T04:26:07.107Z,5.53
2018-12-20T04:28:34.676Z,6.60
2018-12-20T04:31:02.399Z,6.03
2018-12-20T04:33:30.153Z,6.97
2018-12-20T04:35:57.982Z,6.23
2018-12-20T04:38:25.875Z,7.20
2018-12-20T04:40:53.445Z,6.33
2018-12-20T04:43:21.016Z,7.30
2018-12-20T04:45:48.558Z,6.30
2018-12-20T04:48:16.245Z,7.03
2018-12-20T04:50:43.905Z,6.80
2018-12-20T04:53:11.472Z,6.27
2018-12-20T04:55:39.012Z,6.40
2018-12-20T04:58:06.784Z,7.30
2018-12-20T05:00:34.701Z,7.07
2018-12-20T05:03:02.342Z,6.07
2018-12-20T05:05:30.152Z,7.67
2018-12-20T05:07:58.107Z,7.03
2018-12-20T05:10:26.678Z,6.70
2018-12-20T05:12:54.345Z,8.20
2018-12-20T05:15:21.928Z,8.73
2018-12-20T05:17:49.517Z,7.50
2018-12-20T05:20:17.480Z,7.80
2018-12-20T05:22:45.074Z,7.53
2018-12-20T05:25:12.655Z,8.17
2018-12-20T05:27:40.211Z,8.20
2018-12-20T05:30:08.242Z,7.80
2018-12-20T05:32:35.930Z,8.63
2018-12-20T05:35:03.710Z,7.87
2018-12-20T05:37:31.366Z,7.00
2018-12-20T05:39:58.982Z,6.40
2018-12-20T05:42:26.624Z,6.37
2018-12-20T05:44:54.463Z,7.33
2018-12-20T05:47:22.087Z,6.37
2018-12-20T05:49:49.831Z,7.60
2018-12-20T05:52:17.588Z,9.00
2018-12-20T05:54:45.212Z,8.53
2018-12-20T05:57:12.796Z,8.13
2018-12-20T05:59:40.449Z,6.87
2018-12-20T06:02:08.003Z,6.80
2018-12-20T06:04:35.785Z,5.90
2018-12-20T06:07:03.452Z,7.33
2018-12-20T06:09:31.060Z,9.10
2018-12-20T06:11:58.696Z,9.93
2018-12-20T06:14:26.511Z,9.60
2018-12-20T06:16:54.174Z,9.73
2018-12-20T06:19:21.880Z,9.53
2018-12-20T06:21:49.525Z,9.73
2018-12-20T06:24:17.101Z,10.10
2018-12-20T06:26:44.651Z,9.33
2018-12-20T06:29:12.216Z,9.50
2018-12-20T06:31:39.768Z,9.23
2018-12-20T06:34:07.323Z,9.77
2018-12-20T06:36:34.891Z,9.20
2018-12-20T06:39:02.613Z,6.73
2018-12-20T06:41:30.180Z,5.43
2018-12-20T06:43:57.764Z,8.33
2018-12-20T06:46:25.329Z,4.33
2018-12-20T06:48:52.878Z,4.30
2018-12-20T06:51:20.452Z,7.57
2018-12-20T06:53:48.016Z,5.60
2018-12-20T06:56:15.587Z,4.90
2018-12-20T06:58:43.139Z,4.00
2018-12-20T07:01:10.708Z,3.30
2018-12-20T07:03:38.341Z,3.70
2018-12-20T07:06:05.973Z,7.23
2018-12-20T07:08:33.831Z,6.77
2018-12-20T07:11:01.397Z,5.70
2018-12-20T07:13:28.976Z,5.93
2018-12-20T07:15:56.556Z,6.10
2018-12-20T07:18:24.444Z,5.47
2018-12-20T07:20:51.984Z,6.00
2018-12-20T07:23:19.880Z,5.50
2018-12-20T07:25:48.128Z,6.10
2018-12-20T07:28:15.692Z,4.50
2018-12-20T07:30:43.277Z,5.57
2018-12-20T07:33:11.047Z,3.73
2018-12-20T07:35:38.705Z,4.37
2018-12-20T07:38:07.005Z,3.20
2018-12-20T07:40:34.600Z,3.30
2018-12-20T07:43:02.568Z,3.77
2018-12-20T07:45:30.137Z,3.17
2018-12-20T07:47:57.680Z,9.27
2018-12-20T07:50:25.264Z,9.23
2018-12-20T07:52:52.956Z,8.43
2018-12-20T07:55:21.343Z,8.10
2018-12-20T07:57:48.884Z,8.43
2018-12-20T08:00:16.866Z,14.20
2018-12-20T08:02:45.347Z,26.60
2018-12-20T08:05:13.827Z,23.03
2018-12-20T08:07:41.385Z,17.83
2018-12-20T08:10:08.956Z,19.67
2018-12-20T08:12:37.174Z,11.80
2018-12-20T08:15:05.588Z,14.10
2018-12-20T08:17:33.140Z,11.07
2018-12-20T08:20:00.700Z,11.70
2018-12-20T08:22:29.103Z,8.60
2018-12-20T08:24:56.652Z,9.40
2018-12-20T08:27:24.752Z,10.00
2018-12-20T08:29:52.501Z,10.03
2018-12-20T08:32:20.084Z,8.37
2018-12-20T08:34:47.933Z,9.93
2018-12-20T08:37:15.501Z,9.23
2018-12-20T08:39:43.057Z,8.50
2018-12-20T08:42:10.756Z,8.07
2018-12-20T08:44:38.783Z,8.00
2018-12-20T08:47:06.348Z,9.60
2018-12-20T08:49:33.893Z,9.93
2018-12-20T08:52:01.468Z,11.20
2018-12-20T08:54:29.011Z,9.37
2018-12-20T08:56:56.857Z,9.30
2018-12-20T08:59:24.408Z,9.90
2018-12-20T09:01:51.979Z,10.63
2018-12-20T09:04:19.630Z,9.30
2018-12-20T09:06:47.232Z,10.03
2018-12-20T09:09:14.780Z,9.00
2018-12-20T09:11:42.345Z,6.43
2018-12-20T09:14:09.890Z,7.50
2018-12-20T09:16:37.516Z,5.97
2018-12-20T09:19:05.061Z,7.30
2018-12-20T09:21:32.632Z,7.30
2018-12-20T09:24:00.172Z,4.60
2018-12-20T09:26:27.734Z,3.57
2018-12-20T09:28:55.281Z,3.03
2018-12-20T09:31:22.853Z,2.50
2018-12-20T09:33:50.405Z,2.33
2018-12-20T09:36:17.978Z,2.07
2018-12-20T09:38:45.521Z,2.30
2018-12-20T09:41:13.084Z,2.13
2018-12-20T09:43:40.637Z,2.30
2018-12-20T09:46:08.210Z,2.33
2018-12-20T09:48:35.749Z,1.97
2018-12-20T09:51:03.294Z,2.40
2018-12-20T09:53:30.864Z,2.20
2018-12-20T09:55:58.419Z,1.93
2018-12-20T09:58:25.984Z,2.20
2018-12-20T10:00:53.528Z,2.33
2018-12-20T10:03:21.093Z,1.80
2018-12-20T10:05:48.650Z,2.20
2018-12-20T10:08:16.216Z,1.93
2018-12-20T10:10:43.766Z,2.10
2018-12-20T10:13:11.337Z,2.23
2018-12-20T10:15:38.890Z,2.80
2018-12-20T10:18:06.456Z,2.10
2018-12-20T10:20:34.005Z,1.80
2018-12-20T10:23:01.573Z,2.20
2018-12-20T10:25:29.127Z,1.63
2018-12-20T10:27:56.698Z,1.80
2018-12-20T10:30:24.255Z,2.10
2018-12-20T10:32:51.816Z,2.17
2018-12-20T10:35:19.573Z,1.80
2018-12-20T10:37:47.141Z,1.80
2018-12-20T10:40:14.692Z,1.90
2018-12-20T10:42:42.256Z,1.83
2018-12-20T10:45:09.796Z,1.77
2018-12-20T10:47:37.361Z,1.90
2018-12-20T10:50:05.373Z,2.27
2018-12-20T10:52:32.953Z,1.70
2018-12-20T10:55:00.492Z,1.67
2018-12-20T10:57:28.064Z,2.00
2018-12-20T10:59:55.613Z,2.00
2018-12-20T11:02:28.828Z,2.13
2018-12-20T11:05:01.857Z,1.30
2018-12-20T11:07:35.064Z,1.30
2018-12-20T11:10:08.384Z,1.43
2018-12-20T11:12:41.729Z,1.40
2018-12-20T11:15:09.289Z,1.43
2018-12-20T11:17:37.522Z,1.43
2018-12-20T11:20:05.605Z,1.40
2018-12-20T11:22:33.212Z,1.63
2018-12-20T11:25:00.777Z,1.50
2018-12-20T11:27:28.325Z,1.27
2018-12-20T11:29:55.891Z,1.83
2018-12-20T11:32:23.432Z,1.47
2018-12-20T11:34:50.997Z,1.50
2018-12-20T11:37:18.539Z,1.40
2018-12-20T11:39:46.105Z,1.30
2018-12-20T11:42:13.649Z,1.37
2018-12-20T11:44:41.217Z,1.60
2018-12-20T11:47:10.720Z,1.80
2018-12-20T11:49:38.280Z,1.60
2018-12-20T11:52:05.832Z,1.53
2018-12-20T11:54:33.403Z,1.40
2018-12-20T11:57:00.950Z,1.30
2018-12-20T11:59:28.516Z,1.80
2018-12-20T12:01:56.061Z,1.50
2018-12-20T12:04:23.633Z,1.43
2018-12-20T12:06:51.188Z,1.70
2018-12-20T12:09:18.757Z,1.30
2018-12-20T12:11:46.303Z,1.77
2018-12-20T12:14:13.877Z,1.47
2018-12-20T12:16:41.416Z,1.40
2018-12-20T12:19:08.982Z,1.27
2018-12-20T12:21:36.529Z,2.70
2018-12-20T12:24:04.096Z,5.57
2018-12-20T12:26:31.651Z,6.27
2018-12-20T12:28:59.216Z,4.87
2018-12-20T12:31:26.776Z,5.43
2018-12-20T12:33:54.363Z,2.37
2018-12-20T12:36:21.985Z,2.70
2018-12-20T12:38:49.532Z,6.83
2018-12-20T12:41:17.109Z,3.57
2018-12-20T12:43:44.652Z,1.87
2018-12-20T12:46:12.221Z,1.80
2018-12-20T12:48:39.772Z,2.33
2018-12-20T12:51:07.344Z,3.80
2018-12-20T12:53:34.884Z,2.70
2018-12-20T12:56:02.452Z,2.80
2018-12-20T12:58:29.995Z,2.47
2018-12-20T13:00:57.560Z,5.30
2018-12-20T13:03:25.109Z,2.30
2018-12-20T13:05:52.691Z,1.30
2018-12-20T13:08:20.386Z,1.73
2018-12-20T13:10:48.068Z,1.53
2018-12-20T13:13:15.690Z,1.70
2018-12-20T13:15:43.256Z,1.50
2018-12-20T13:18:13.755Z,1.90
2018-12-20T13:20:40.470Z,1.60
2018-12-20T13:23:08.077Z,1.27
2018-12-20T13:25:35.644Z,0.97
2018-12-20T13:28:03.203Z,1.07
2018-12-20T13:30:30.781Z,1.37
2018-12-20T13:32:58.326Z,1.10
2018-12-20T13:35:25.956Z,1.03
2018-12-20T13:37:53.496Z,1.10
2018-12-20T13:40:21.066Z,1.13
2018-12-20T13:42:48.608Z,1.20
2018-12-20T13:45:16.184Z,1.73
2018-12-20T13:47:43.740Z,1.97
2018-12-20T13:50:11.313Z,1.80
2018-12-20T13:52:38.864Z,1.53
2018-12-20T13:55:06.424Z,1.43
2018-12-20T13:57:33.968Z,1.23
2018-12-20T14:00:01.539Z,1.33
2018-12-20T14:02:29.091Z,1.80
2018-12-20T14:04:56.661Z,1.80
2018-12-20T14:07:24.216Z,1.70
2018-12-20T14:09:51.764Z,1.63
2018-12-20T14:12:19.336Z,1.90
2018-12-20T14:14:46.880Z,1.60
2018-12-20T14:17:14.448Z,1.27
2018-12-20T14:19:41.997Z,1.30
2018-12-20T14:22:09.569Z,2.00
2018-12-20T14:24:37.115Z,1.70
2018-12-20T14:27:04.676Z,1.83
2018-12-20T14:29:33.566Z,1.53
2018-12-20T14:32:01.347Z,1.40
2018-12-20T14:34:28.980Z,2.00
2018-12-20T14:36:56.569Z,1.73
2018-12-20T14:39:24.124Z,1.60
2018-12-20T14:41:51.693Z,1.70
2018-12-20T14:44:19.241Z,1.40
2018-12-20T14:46:46.807Z,1.60
2018-12-20T14:49:14.356Z,1.63
2018-12-20T14:51:41.932Z,1.60
2018-12-20T14:54:09.476Z,1.37
2018-12-20T14:56:37.045Z,1.60
2018-12-20T14:59:04.600Z,2.00
2018-12-20T15:01:32.174Z,1.27
2018-12-20T15:03:59.732Z,1.50
2018-12-20T15:06:27.300Z,1.97
2018-12-20T15:08:54.913Z,2.60
2018-12-20T15:11:22.476Z,1.67
2018-12-20T15:13:50.016Z,2.00
2018-12-20T15:16:17.581Z,1.80
2018-12-20T15:18:47.823Z,1.90
2018-12-20T15:21:14.768Z,3.33
2018-12-20T15:23:42.318Z,2.27
2018-12-20T15:26:09.885Z,3.13
2018-12-20T15:28:37.431Z,2.20
2018-12-20T15:31:05.001Z,1.90
2018-12-20T15:33:33.656Z,2.43
2018-12-20T15:36:01.362Z,2.70
2018-12-20T15:38:28.915Z,3.20
2018-12-20T15:40:56.467Z,3.03
2018-12-20T15:43:24.046Z,2.60
2018-12-20T15:45:51.601Z,2.60
2018-12-20T15:48:19.172Z,2.70
2018-12-20T15:50:46.725Z,2.30
2018-12-20T15:53:14.297Z,2.30
2018-12-20T15:55:41.844Z,1.90
2018-12-20T15:58:09.416Z,1.93
2018-12-20T16:00:36.961Z,1.73
2018-12-20T16:03:04.592Z,1.90
2018-12-20T16:05:32.141Z,1.77
2018-12-20T16:08:01.673Z,2.23
2018-12-20T16:10:29.285Z,1.80
2018-12-20T16:12:56.853Z,1.50
2018-12-20T16:15:24.401Z,1.90
2018-12-20T16:17:51.980Z,1.67
2018-12-20T16:20:19.661Z,1.97
2018-12-20T16:22:47.239Z,1.97
2018-12-20T16:25:14.784Z,2.20
2018-12-20T16:27:42.358Z,2.00
2018-12-20T16:30:10.081Z,2.20
2018-12-20T16:32:37.647Z,1.67
2018-12-20T16:35:06.168Z,2.13
2018-12-20T16:37:33.745Z,1.80
2018-12-20T16:40:01.296Z,2.40
2018-12-20T16:42:28.868Z,2.20
2018-12-20T16:44:56.409Z,1.80
2018-12-20T16:47:23.974Z,1.70
2018-12-20T16:49:51.532Z,1.50
2018-12-20T16:52:19.101Z,1.83
2018-12-20T16:54:46.646Z,2.10
2018-12-20T16:57:14.213Z,2.20
2018-12-20T16:59:41.758Z,2.00
2018-12-20T17:02:09.400Z,1.60
2018-12-20T17:04:36.943Z,1.83
2018-12-20T17:07:05.797Z,1.43
2018-12-20T17:09:33.546Z,1.40
2018-12-20T17:12:01.124Z,1.50
2018-12-20T17:14:28.667Z,1.73
2018-12-20T17:16:56.213Z,1.90
2018-12-20T17:19:23.781Z,8.70
2018-12-20T17:21:51.333Z,2.50
2018-12-20T17:24:18.892Z,1.93
2018-12-20T17:26:46.435Z,2.00
2018-12-20T17:29:14.069Z,1.97
2018-12-20T17:31:41.620Z,1.50
2018-12-20T17:34:09.198Z,2.07
2018-12-20T17:36:36.752Z,1.83
2018-12-20T17:39:05.501Z,2.10
2018-12-20T17:41:33.040Z,1.93
2018-12-20T17:44:00.609Z,2.43
2018-12-20T17:46:28.161Z,2.57
2018-12-20T17:48:55.720Z,2.23
2018-12-20T17:51:23.260Z,2.13
2018-12-20T17:53:50.837Z,2.37
2018-12-20T17:56:18.388Z,2.30
2018-12-20T17:58:45.948Z,1.80
2018-12-20T18:01:13.501Z,2.13
2018-12-20T18:03:41.300Z,2.37
2018-12-20T18:06:08.911Z,2.07
2018-12-20T18:08:36.481Z,2.10
2018-12-20T18:11:04.045Z,2.47
2018-12-20T18:13:31.624Z,1.90
2018-12-20T18:15:59.343Z,1.80
2018-12-20T18:18:26.953Z,2.10
2018-12-20T18:20:54.595Z,3.13
2018-12-20T18:23:22.160Z,3.40
2018-12-20T18:25:49.713Z,2.57
2018-12-20T18:28:17.289Z,2.40
2018-12-20T18:30:44.828Z,2.30
2018-12-20T18:33:12.393Z,2.63
2018-12-20T18:35:39.940Z,2.90
2018-12-20T18:38:07.505Z,2.40
2018-12-20T18:40:35.085Z,2.73
2018-12-20T18:43:02.745Z,3.10
2018-12-20T18:45:30.300Z,2.63
2018-12-20T18:47:57.874Z,3.70
2018-12-20T18:50:25.440Z,2.70
2018-12-20T18:52:52.996Z,2.53
2018-12-20T18:55:20.565Z,3.83
2018-12-20T18:57:48.117Z,3.03
2018-12-20T19:00:15.753Z,3.20
2018-12-20T19:02:43.297Z,2.67
2018-12-20T19:05:10.861Z,4.30
2018-12-20T19:07:38.485Z,6.90
2018-12-20T19:10:06.529Z,2.43
2018-12-20T19:12:34.083Z,1.77
2018-12-20T19:15:01.648Z,2.10
2018-12-20T19:17:29.214Z,1.90
2018-12-20T19:19:56.800Z,1.67
2018-12-20T19:22:24.473Z,1.70
2018-12-20T19:24:52.050Z,2.20
2018-12-20T19:27:19.608Z,2.40
2018-12-20T19:29:47.177Z,2.70
2018-12-20T19:32:14.716Z,2.13
2018-12-20T19:34:42.308Z,2.30
2018-12-20T19:37:09.917Z,2.10
2018-12-20T19:39:37.489Z,4.40
2018-12-20T19:42:07.013Z,2.83
2018-12-20T19:44:34.580Z,3.03
2018-12-20T19:47:02.128Z,2.00
2018-12-20T19:49:29.701Z,2.50
2018-12-20T19:51:57.257Z,2.13
2018-12-20T19:54:24.824Z,2.00
2018-12-20T19:56:52.376Z,2.07
2018-12-20T19:59:19.935Z,2.20
2018-12-20T20:01:47.488Z,3.40
2018-12-20T20:04:15.053Z,2.60
2018-12-20T20:06:42.598Z,2.50
2018-12-20T20:09:10.167Z,5.40
2018-12-20T20:11:37.720Z,7.33
2018-12-20T20:14:05.291Z,4.23
2018-12-20T20:16:32.846Z,4.83
2018-12-20T20:19:00.547Z,5.33
2018-12-20T20:21:28.096Z,4.63
2018-12-20T20:23:55.673Z,3.43
2018-12-20T20:26:23.221Z,4.50
2018-12-20T20:28:50.770Z,4.00
2018-12-20T20:31:18.341Z,3.83
2018-12-20T20:33:45.888Z,3.43
2018-12-20T20:36:13.458Z,3.00
2018-12-20T20:38:41.008Z,3.10
2018-12-20T20:41:08.577Z,2.33
2018-12-20T20:43:36.117Z,3.90
2018-12-20T20:46:03.685Z,7.40
2018-12-20T20:48:31.304Z,4.13
2018-12-20T20:50:59.176Z,4.10
2018-12-20T20:53:26.722Z,3.00
2018-12-20T20:55:54.298Z,2.83
2018-12-20T20:58:21.860Z,2.77
2018-12-20T21:00:49.659Z,3.20
2018-12-20T21:03:17.215Z,3.30
2018-12-20T21:05:44.784Z,3.83
2018-12-20T21:08:12.337Z,3.53
2018-12-20T21:10:39.907Z,3.00
2018-12-20T21:13:07.472Z,3.07
2018-12-20T21:15:35.798Z,3.70
2018-12-20T21:18:03.340Z,3.90
2018-12-20T21:20:31.183Z,2.83
2018-12-20T21:22:58.906Z,18.47
2018-12-20T21:25:27.069Z,3.77
2018-12-20T21:27:55.537Z,5.80
2018-12-20T21:30:23.620Z,2.80
2018-12-20T21:32:51.177Z,5.60
2018-12-20T21:35:19.044Z,4.60
2018-12-20T21:37:46.602Z,5.00
2018-12-20T21:40:14.493Z,3.50
2018-12-20T21:42:42.041Z,3.03
2018-12-20T21:45:09.812Z,3.70
2018-12-20T21:47:37.373Z,4.10
2018-12-20T21:50:06.328Z,4.63
2018-12-20T21:52:33.909Z,4.30
2018-12-20T21:55:01.604Z,3.47
2018-12-20T21:57:29.160Z,3.90
2018-12-20T22:00:01.161Z,3.17
2018-12-20T22:02:27.160Z,3.33
2018-12-20T22:04:55.644Z,2.73
2018-12-20T22:07:23.201Z,4.20
2018-12-20T22:09:50.767Z,3.87
2018-12-20T22:12:18.340Z,5.30
2018-12-20T22:14:46.046Z,4.20
2018-12-20T22:17:13.940Z,3.77
2018-12-20T22:19:41.908Z,4.83
2018-12-20T22:22:09.946Z,6.10
2018-12-20T22:24:37.484Z,4.33
2018-12-20T22:27:05.777Z,3.63
2018-12-20T22:29:33.320Z,3.80
2018-12-20T22:32:01.317Z,3.83
2018-12-20T22:34:29.247Z,2.77
2018-12-20T22:36:57.261Z,2.70
2018-12-20T22:39:24.808Z,2.90
2018-12-20T22:41:52.381Z,4.70
2018-12-20T22:44:19.928Z,2.60
2018-12-20T22:46:48.121Z,2.33
2018-12-20T22:49:16.012Z,2.50
2018-12-20T22:51:43.589Z,2.27
2018-12-20T22:54:11.658Z,2.40
2018-12-20T22:56:39.240Z,2.40
2018-12-20T22:59:06.941Z,2.40
2018-12-20T23:01:34.545Z,5.30
2018-12-20T23:04:02.371Z,2.80
2018-12-20T23:06:31.647Z,2.83
2018-12-20T23:08:59.196Z,2.47
2018-12-20T23:11:26.787Z,2.40
2018-12-20T23:13:54.328Z,2.37
2018-12-20T23:16:22.345Z,2.07
2018-12-20T23:18:49.906Z,2.37
2018-12-20T23:21:18.297Z,2.10
2018-12-20T23:23:47.443Z,2.90
2018-12-20T23:26:15.970Z,2.00
2018-12-20T23:28:43.603Z,1.90
2018-12-20T23:31:11.821Z,1.73
2018-12-20T23:33:39.378Z,1.50
2018-12-20T23:36:06.965Z,1.73
2018-12-20T23:38:34.732Z,1.60
2018-12-20T23:41:02.299Z,1.47
2018-12-20T23:43:29.841Z,1.53
2018-12-20T23:45:57.416Z,2.20
2018-12-20T23:48:25.185Z,1.67
2018-12-20T23:50:52.732Z,1.67
2018-12-20T23:53:20.315Z,1.40
2018-12-20T23:55:48.198Z,1.50
2018-12-20T23:58:15.769Z,1.80
